IDBO2: Little River, Idabel, OK

Data processed at Wed May 22 2019 23:50


All information presented herein is the property of the government of the United States of America and may be revised or deleted at any time without prior notice.
Dissemination of this information without the expressed written consent of the Public Affairs Office, Tulsa District U.S. Army Corps of Engineers is strictly prohibited.
These data are gathered electronically and, as presented, have not undergone any form of quality control. These data are not guaranteed to be valid or correct.
Go to home page.
Go to station list.
Go to home page.

Upstream stations:

Downstream station:
Previous Day
Next Day
Current Day
    
SHEF ID:       IDBO2     Little River blw Lukfata Creek
STATION TYPE:  
Regulating: Stage =    27.50, Flow =    12499

               PRECIP     STAGE  RIV-FLOW  BAT-LOAD
                   in        ft       cfs      volt
              Ccp-Rev   Ccp-Rev   Ccp-Rev   Ccp-Rev
(US/Central)
05/22 00:00      0.00     16.67      5325     12.89
05/22 01:00      0.00     16.73      5360     12.89
05/22 02:00      0.00     16.77      5384     12.81
05/22 03:00      0.00     16.80      5402     12.81
05/22 04:00      0.00     16.83      5419     12.81
05/22 05:00      0.00     16.86      5437     12.81
05/22 06:00      0.00     16.89      5455     12.81
05/22 07:00      0.00     16.94      5485     12.81
05/22 08:00      0.01     16.98      5508     12.81
05/22 09:00      0.00     17.03      5538     12.89
05/22 10:00      0.00     17.09      5574     13.37
05/22 11:00      0.00     17.15      5610     13.60
05/22 12:00      0.00     17.20      5640     13.84
05/22 13:00      0.00     17.27      5682     13.76
05/22 14:00      0.00     17.32      5711     13.44
05/22 15:00      0.00     17.35      5729     13.37
05/22 16:00      0.00     17.39      5753     13.29
05/22 17:00      0.00     17.44      5784     13.29
05/22 18:00      0.00     17.45      5790     13.29
05/22 19:00      0.00     17.47      5802     13.29
05/22 20:00      0.00     17.46      5796     13.29
05/22 21:00      0.00     17.47      5802     13.05
05/22 22:00      0.00     17.47      5802     12.97
05/22 23:00      0.00     17.47      5802     12.97